TTL weather

Turtle Island Seaplane Base
Nanuya Levu Island, Western, Fiji

Public forecast

Using degrees Celsius for public forecast. Weather courtesy of forecast.io.

Closest aviation weather report (METAR) to Turtle Island Seaplane Base

Closest report is Nadi International Airport, 47.6 nm (88.1 km) S. Retrieved 2020/04/08 08:00 UTC (33 minutes ago):

NFFN 080800Z 25009KT 9999 BKN020 BKN040 OVC100 27/25 Q1004 RESHRA TEMPO 3000 TSRA

Closest aviation forecast (TAF) to Turtle Island Seaplane Base

Closest forecast is Nadi International Airport, 47.6 nm (88.1 km) S. Retrieved 2020/04/08 06:00 UTC (3 hours ago):

TAF NFFN 080525Z 0806/0906 27019KT 8000 -SHRA BKN015 BKN044 OVC100 TEMPO 0806/0816 26022G40KT 3000 +TSRA BKN015 FEW017CB FM081600 24012KT 9999 -SHRA SCT020 BKN100